Watertown, CT

12:50 PM EDT on March 30, 2015 (GMT -0400)
Hartford-brainard | | Change Station
CLOSE
Current Station
Airport
Location: Hartford,
Elevation: 16 ft
Nearby Weather Stations

Elev 16 ft 41.74 °N, 72.65 °W | Updated 57 minutes ago

Overcast
Overcast
38 °F
Feels Like 31 °F
N
10
Wind Variable Wind from SSW
Gusts 20 mph

Today
High -- | Low -- °F
--% Chance of Precip.
Yesterday
High -- | Low -- °F
Precip. -- in
6:39 AM 7:15 PM
Waxing Gibbous, 81% visible
Pressure 29.81 in
Visibility 10.0 miles
Clouds Scattered Clouds 1900 ft
Overcast 4100 ft
Windchill 31 °F
Dew Point 31 °F
Humidity 76%
Rainfall 0.00 in
Snow Depth Not available.
UV 2 out of 12
Pollen 4.80 out of 12
Air Quality Not available.
Flu Activity Not available.
METAR KHFD 301553Z 20009G17KT 10SM SCT019 OVC041 03/M01 A2981 RMK AO2 SLP095 T00331006

More Conditions Fewer Conditions

Pressure 29.81 in
Visibility 10.0 miles
Clouds Scattered Clouds 1900 ft
Overcast 4100 ft
Windchill 31 °F
Dew Point 31 °F
Humidity 76%
Rainfall 0.00 in
Snow Depth Not available.
UV 2 out of 12
Pollen 4.80 out of 12
Air Quality Not available.
Flu Activity Not available.
METAR KHFD 301553Z 20009G17KT 10SM SCT019 OVC041 03/M01 A2981 RMK AO2 SLP095 T00331006

More Conditions Fewer Conditions

10-Day Weather Forecast

Almanac

Astronomy

Mar. 30, 2015 Rise Set
Actual Time
Civil Twilight
Nautical Twilight
Astronomical Twilight
Moon
Length of Visible Light
Length of Day
Tomorrow will be .
, % of the Moon is Illuminated

Today's Extremes

State Highs State Lows

Community

WunderPhotos

Upload Photos

1,809,536 photos uploaded!

WunderBlogs® & News

Nearby

Air Quality

  Air Quality AQ Index Pollutant
Not available.

Snow Depth

Station Depth Elevation

Earthquake Activity

City Distance Mag. Time & Date
Minimum magnitude displayed is 2.5.

Coastal Water Temperatures

Place Temperature

Stations

Nearby Weather Stations

Station Location Temp. Windchill Dew Point Humidity Wind Precip. Elev Updated Type